Time;durP1;ratioP1;P1;durP2;ratioP2;P2;SDS_P1;SDS_P2;PMS_P1;PMS_P2;Temp;Humidity;BMP_temperature;BMP_pressure;BME280_temperature;BME280_humidity;BME280_pressure;Samples;Min_cycle;Max_cycle;Signal;HPM_P1;HPM_P2
2021/12/26 00:01:35;;;;;;;51.70;18.50;;;-10.40;99.90;;;;;;5072361;28;20268;-78
2021/12/26 00:04:13;;;;;;;48.70;17.47;;;-10.40;99.90;;;;;;5072813;28;20243;-78
2021/12/26 00:06:44;;;;;;;53.90;19.00;;;-10.40;99.90;;;;;;5071821;28;20184;-78
2021/12/26 00:09:16;;;;;;;51.33;17.73;;;-10.50;99.90;;;;;;5072341;28;20224;-78
2021/12/26 00:11:43;;;;;;;57.77;18.03;;;-10.50;99.90;;;;;;5072670;28;20593;-78
2021/12/26 00:14:11;;;;;;;58.53;20.40;;;-10.60;99.90;;;;;;5072597;28;20200;-78
2021/12/26 00:16:38;;;;;;;50.27;19.13;;;-10.60;99.90;;;;;;5072505;28;20622;-78
2021/12/26 00:19:06;;;;;;;51.87;19.87;;;-10.60;99.90;;;;;;5072565;28;20192;-78
2021/12/26 00:21:34;;;;;;;60.87;20.60;;;-10.70;99.90;;;;;;5072382;28;20250;-78
2021/12/26 00:24:02;;;;;;;63.83;22.10;;;-10.70;99.90;;;;;;5057097;28;20208;-78
2021/12/26 00:26:31;;;;;;;55.03;20.17;;;-10.80;99.90;;;;;;5052375;28;20199;-78
2021/12/26 00:28:59;;;;;;;53.63;18.03;;;-10.80;99.90;;;;;;5052411;28;20219;-79
2021/12/26 00:31:28;;;;;;;52.70;18.47;;;-10.80;99.90;;;;;;5052376;28;20196;-78
2021/12/26 00:33:55;;;;;;;48.23;18.60;;;-10.90;99.90;;;;;;5052007;28;20205;-78
2021/12/26 00:36:22;;;;;;;49.93;18.30;;;-10.90;99.90;;;;;;5052003;28;20530;-78
2021/12/26 00:38:49;;;;;;;50.47;17.93;;;-11.00;99.90;;;;;;5052330;28;20192;-78
2021/12/26 00:41:16;;;;;;;47.10;17.33;;;-11.00;99.90;;;;;;5051914;28;20196;-78
2021/12/26 00:43:43;;;;;;;44.47;16.90;;;-11.10;99.90;;;;;;5051858;28;20262;-78
2021/12/26 00:46:10;;;;;;;48.97;18.07;;;-11.00;99.90;;;;;;5052377;28;20646;-78
2021/12/26 00:48:38;;;;;;;67.80;19.73;;;-11.10;99.90;;;;;;5055932;28;20712;-78
2021/12/26 00:51:06;;;;;;;57.43;18.13;;;-11.20;99.90;;;;;;5056334;28;20193;-78
2021/12/26 00:53:33;;;;;;;54.63;18.17;;;-11.20;99.90;;;;;;5057467;28;20224;-78
2021/12/26 00:56:00;;;;;;;48.60;16.23;;;-11.20;99.90;;;;;;5055699;28;20668;-78
2021/12/26 00:58:27;;;;;;;50.37;19.23;;;-11.20;99.90;;;;;;5071097;28;20195;-78
2021/12/26 01:00:54;;;;;;;53.70;18.77;;;-11.30;99.90;;;;;;5075939;28;20196;-78
2021/12/26 01:03:22;;;;;;;39.17;15.73;;;-11.30;99.90;;;;;;5075854;28;20237;-78
2021/12/26 01:05:52;;;;;;;33.33;13.53;;;-11.40;99.90;;;;;;5075655;28;20554;-78
2021/12/26 01:08:24;;;;;;;32.70;12.43;;;-11.40;99.90;;;;;;5075690;28;20628;-78
2021/12/26 01:10:55;;;;;;;38.57;14.10;;;-11.40;99.90;;;;;;5075845;28;20184;-78
2021/12/26 01:13:28;;;;;;;32.73;12.50;;;-11.40;99.90;;;;;;5075743;28;20184;-78
2021/12/26 01:15:58;;;;;;;26.30;12.20;;;-11.40;99.90;;;;;;5075580;28;20250;-78
2021/12/26 01:18:29;;;;;;;35.53;15.53;;;-11.40;99.90;;;;;;5075693;28;20203;-78
2021/12/26 01:21:03;;;;;;;45.23;21.60;;;-11.50;99.90;;;;;;5075324;28;20180;-78
2021/12/26 01:23:31;;;;;;;27.50;12.57;;;-11.40;99.90;;;;;;5061198;28;20192;-78
2021/12/26 01:25:58;;;;;;;28.13;11.03;;;-11.40;99.90;;;;;;5055424;28;20479;-78
2021/12/26 01:28:28;;;;;;;25.17;11.87;;;-11.30;99.90;;;;;;5055502;28;20246;-78
2021/12/26 01:30:55;;;;;;;32.27;13.77;;;-11.30;99.90;;;;;;5055351;28;20193;-78
2021/12/26 01:33:23;;;;;;;29.40;14.00;;;-11.30;99.90;;;;;;5055353;28;20250;-78
2021/12/26 01:35:50;;;;;;;29.60;12.23;;;-11.30;99.90;;;;;;5055075;28;20250;-78
2021/12/26 01:38:19;;;;;;;22.63;9.27;;;-11.30;99.90;;;;;;5054919;28;20200;-78
2021/12/26 01:40:49;;;;;;;19.23;9.10;;;-11.30;99.90;;;;;;5055337;28;20196;-78
2021/12/26 01:43:18;;;;;;;22.67;9.93;;;-11.30;99.90;;;;;;5055308;28;20306;-78
2021/12/26 01:45:46;;;;;;;27.33;11.10;;;-11.30;99.90;;;;;;5055085;28;20547;-78
2021/12/26 01:48:13;;;;;;;26.47;11.23;;;-11.40;99.90;;;;;;5054878;28;20287;-78
2021/12/26 01:50:41;;;;;;;29.17;11.50;;;-11.40;99.90;;;;;;5055174;28;20561;-78
2021/12/26 01:53:09;;;;;;;31.00;12.60;;;-11.40;99.90;;;;;;5071109;28;20233;-78
2021/12/26 01:55:40;;;;;;;34.90;15.30;;;-11.40;99.90;;;;;;5074849;28;20200;-78
2021/12/26 01:58:10;;;;;;;42.47;16.17;;;-11.50;99.90;;;;;;5074291;28;20607;-77
2021/12/26 02:00:38;;;;;;;35.37;13.93;;;-11.50;99.90;;;;;;5075157;28;20257;-78
2021/12/26 02:03:05;;;;;;;36.03;14.00;;;-11.50;99.90;;;;;;5075182;28;20192;-78
2021/12/26 02:05:33;;;;;;;35.30;15.17;;;-11.50;99.90;;;;;;5074751;28;20270;-78
2021/12/26 02:08:00;;;;;;;36.27;14.67;;;-11.50;99.90;;;;;;5074777;28;20230;-78
2021/12/26 02:10:27;;;;;;;34.70;15.30;;;-11.50;99.90;;;;;;5074681;28;20199;-78
2021/12/26 02:12:55;;;;;;;39.47;13.77;;;-11.50;99.90;;;;;;5074757;28;20192;-78
2021/12/26 02:15:23;;;;;;;35.70;13.37;;;-11.50;99.90;;;;;;5074155;28;20601;-78
2021/12/26 02:17:50;;;;;;;34.43;13.50;;;-11.50;99.90;;;;;;5074322;28;20539;-78
2021/12/26 02:20:22;;;;;;;38.10;14.23;;;-11.50;99.90;;;;;;5074240;28;20717;-77
2021/12/26 02:22:55;;;;;;;33.57;13.43;;;-11.50;99.90;;;;;;5072425;28;20184;-78
2021/12/26 02:25:32;;;;;;;32.13;12.40;;;-11.40;99.90;;;;;;5074395;28;20218;-78
2021/12/26 02:27:58;;;;;;;32.33;12.53;;;-11.40;99.90;;;;;;5074564;28;20180;-78
2021/12/26 02:30:25;;;;;;;31.90;11.87;;;-11.30;99.90;;;;;;5074342;28;20215;-78
2021/12/26 02:32:57;;;;;;;31.10;12.43;;;-11.30;99.90;;;;;;5073925;28;20238;-78
2021/12/26 02:35:25;;;;;;;32.23;12.33;;;-11.30;99.90;;;;;;5073956;28;20184;-78
2021/12/26 02:37:52;;;;;;;26.37;12.40;;;-11.30;99.90;;;;;;5074170;28;20251;-78
2021/12/26 02:40:19;;;;;;;26.90;11.67;;;-11.30;99.90;;;;;;5074146;28;20195;-78
2021/12/26 02:42:47;;;;;;;29.30;12.20;;;-11.30;99.90;;;;;;5073693;28;20192;-78
2021/12/26 02:45:16;;;;;;;25.07;10.87;;;-11.40;99.90;;;;;;5073571;28;20211;-78
2021/12/26 02:47:45;;;;;;;28.33;10.90;;;-11.40;99.90;;;;;;5074148;28;20317;-78
2021/12/26 02:50:15;;;;;;;27.23;12.10;;;-11.40;99.90;;;;;;5074258;28;20187;-78
2021/12/26 02:52:44;;;;;;;29.60;12.37;;;-11.40;99.90;;;;;;5058589;28;20226;-78
2021/12/26 02:55:13;;;;;;;28.27;9.90;;;-11.50;99.90;;;;;;5053961;28;20649;-78
2021/12/26 02:57:40;;;;;;;24.70;10.97;;;-11.60;99.90;;;;;;5054203;28;20239;-78
2021/12/26 03:00:09;;;;;;;27.53;11.23;;;-11.70;99.90;;;;;;5060478;28;20715;-78
2021/12/26 03:02:40;;;;;;;20.27;8.70;;;-11.70;99.90;;;;;;5073589;28;20247;-78
2021/12/26 03:05:07;;;;;;;22.30;9.17;;;-11.80;99.90;;;;;;5073291;28;20215;-78
2021/12/26 03:07:34;;;;;;;19.73;8.43;;;-11.80;99.90;;;;;;5073198;28;20611;-78
2021/12/26 03:10:04;;;;;;;24.47;8.20;;;-11.90;99.90;;;;;;5073345;28;20192;-78
2021/12/26 03:12:33;;;;;;;20.47;8.03;;;-12.00;99.90;;;;;;5072832;28;20721;-78
2021/12/26 03:15:00;;;;;;;26.73;9.80;;;-12.10;99.90;;;;;;5073429;28;20204;-78
2021/12/26 03:17:27;;;;;;;31.43;9.93;;;-12.10;99.90;;;;;;5073644;28;20227;-78
2021/12/26 03:19:54;;;;;;;27.07;9.40;;;-12.20;99.90;;;;;;5073354;28;20192;-78
2021/12/26 03:22:25;;;;;;;21.23;7.97;;;-12.20;99.90;;;;;;5073356;28;20192;-78
2021/12/26 03:24:52;;;;;;;24.53;8.50;;;-12.20;99.90;;;;;;5073102;28;20261;-78
2021/12/26 03:27:20;;;;;;;23.83;8.43;;;-12.00;99.90;;;;;;5073323;28;20192;-78
2021/12/26 03:29:47;;;;;;;16.43;7.83;;;-12.30;99.90;;;;;;5072797;28;20245;-78
2021/12/26 03:32:14;;;;;;;19.83;6.77;;;-12.40;99.90;;;;;;5057891;28;20185;-78
2021/12/26 03:34:49;;;;;;;17.90;7.03;;;-12.40;99.90;;;;;;5053008;28;20923;-78
2021/12/26 03:37:17;;;;;;;15.50;6.47;;;-12.40;99.90;;;;;;5053285;28;20249;-78
2021/12/26 03:39:44;;;;;;;16.50;6.13;;;-12.40;99.90;;;;;;5053423;28;20188;-78
2021/12/26 03:42:11;;;;;;;15.83;6.03;;;-12.50;99.90;;;;;;5053054;28;20193;-78
2021/12/26 03:44:40;;;;;;;17.10;6.90;;;-12.50;99.90;;;;;;5052820;28;20212;-78
2021/12/26 03:47:07;;;;;;;16.47;5.93;;;-12.60;99.90;;;;;;5052520;28;20973;-78
2021/12/26 03:49:34;;;;;;;20.17;6.53;;;-12.60;99.90;;;;;;5052571;28;20438;-78
2021/12/26 03:52:01;;;;;;;12.83;6.20;;;-12.60;99.90;;;;;;5052882;28;20499;-78
2021/12/26 03:54:28;;;;;;;22.87;7.70;;;-12.60;99.90;;;;;;5052507;28;21013;-78
2021/12/26 03:56:55;;;;;;;22.40;8.40;;;-12.60;99.90;;;;;;5052390;28;20796;-78
2021/12/26 03:59:22;;;;;;;14.53;6.87;;;-12.60;99.90;;;;;;5052830;28;20581;-78
2021/12/26 04:01:50;;;;;;;16.50;6.37;;;-12.60;99.90;;;;;;5063689;28;20192;-78
2021/12/26 04:04:17;;;;;;;15.23;6.27;;;-12.50;99.90;;;;;;5072948;28;20199;-78
2021/12/26 04:06:44;;;;;;;15.17;6.20;;;-12.50;99.90;;;;;;5072905;28;20437;-78
2021/12/26 04:09:11;;;;;;;16.63;7.87;;;-12.40;99.90;;;;;;5072335;28;20188;-78
2021/12/26 04:11:41;;;;;;;16.40;6.87;;;-12.40;99.90;;;;;;5072209;28;20944;-78
2021/12/26 04:14:09;;;;;;;18.10;7.17;;;-12.40;99.90;;;;;;5072239;28;20196;-78
2021/12/26 04:16:36;;;;;;;20.97;7.10;;;-12.30;99.90;;;;;;5072249;28;20223;-78
2021/12/26 04:19:05;;;;;;;21.80;8.00;;;-12.30;99.90;;;;;;5072296;28;20556;-77
2021/12/26 04:21:33;;;;;;;13.83;7.07;;;-12.40;99.90;;;;;;5071645;28;20240;-78
2021/12/26 04:24:00;;;;;;;21.70;8.83;;;-12.40;99.90;;;;;;5072550;28;20304;-78
2021/12/26 04:26:27;;;;;;;26.40;11.30;;;-12.40;99.90;;;;;;5072037;28;20216;-78
2021/12/26 04:28:54;;;;;;;45.17;19.87;;;-12.30;99.90;;;;;;5072490;28;20265;-78
2021/12/26 04:31:21;;;;;;;41.00;18.53;;;-12.30;99.90;;;;;;5070571;28;20436;-78
2021/12/26 04:33:48;;;;;;;39.83;17.87;;;-12.30;99.90;;;;;;5072643;28;20196;-78
2021/12/26 04:36:17;;;;;;;33.03;13.53;;;-12.20;99.90;;;;;;5072260;28;20246;-78
2021/12/26 04:38:45;;;;;;;37.33;14.77;;;-12.20;99.90;;;;;;5072126;28;20195;-78
2021/12/26 04:41:12;;;;;;;28.50;11.37;;;-12.20;99.90;;;;;;5071700;28;20505;-78
2021/12/26 04:43:39;;;;;;;29.10;12.13;;;-12.20;99.90;;;;;;5072262;28;20192;-78
2021/12/26 04:46:08;;;;;;;25.97;12.70;;;-12.30;99.90;;;;;;5072225;28;20207;-78
2021/12/26 04:48:35;;;;;;;32.67;13.97;;;-12.30;99.90;;;;;;5072316;28;20191;-78
2021/12/26 04:51:03;;;;;;;34.23;13.50;;;-12.30;99.90;;;;;;5072173;28;20265;-78
2021/12/26 04:53:31;;;;;;;26.33;11.10;;;-12.30;99.90;;;;;;5072033;28;20192;-78
2021/12/26 04:55:58;;;;;;;20.67;8.80;;;-12.30;99.90;;;;;;5071980;28;20731;-78
2021/12/26 04:58:25;;;;;;;25.07;9.97;;;-12.30;99.90;;;;;;5072176;28;20436;-78
2021/12/26 05:00:52;;;;;;;22.93;10.07;;;-12.30;99.90;;;;;;5068591;28;20212;-78
2021/12/26 05:03:19;;;;;;;21.53;8.47;;;-12.30;99.90;;;;;;5070380;28;20196;-78
2021/12/26 05:05:46;;;;;;;24.10;9.23;;;-12.30;99.90;;;;;;5072312;28;20464;-77
2021/12/26 05:08:13;;;;;;;21.77;9.33;;;-12.30;99.90;;;;;;5072009;28;20241;-78
2021/12/26 05:10:42;;;;;;;19.93;9.50;;;-12.30;99.90;;;;;;5072063;28;20188;-78
2021/12/26 05:13:09;;;;;;;23.10;10.30;;;-12.20;99.90;;;;;;5072035;28;20241;-78
2021/12/26 05:15:37;;;;;;;17.40;9.47;;;-12.30;99.90;;;;;;5071556;28;20224;-78
2021/12/26 05:18:05;;;;;;;25.47;9.97;;;-12.30;99.90;;;;;;5072256;28;20246;-78
2021/12/26 05:20:32;;;;;;;29.30;13.20;;;-12.30;99.90;;;;;;5071964;28;20214;-78
2021/12/26 05:23:00;;;;;;;50.00;16.73;;;-12.30;99.90;;;;;;5071489;28;20218;-78
2021/12/26 05:25:28;;;;;;;36.83;14.67;;;-12.30;99.90;;;;;;5071555;28;20272;-78
2021/12/26 05:27:56;;;;;;;35.27;14.57;;;-12.30;99.90;;;;;;5071924;28;20192;-78
2021/12/26 05:30:25;;;;;;;36.33;12.70;;;-12.30;99.90;;;;;;5070104;28;20192;-78
2021/12/26 05:32:52;;;;;;;28.27;11.97;;;-12.30;99.90;;;;;;5051391;28;20654;-78
2021/12/26 05:35:20;;;;;;;28.63;11.57;;;-12.30;99.90;;;;;;5054729;28;20249;-78
2021/12/26 05:37:48;;;;;;;25.93;10.40;;;-12.40;99.90;;;;;;5055239;28;20248;-78
2021/12/26 05:40:16;;;;;;;22.57;9.70;;;-12.40;99.90;;;;;;5054935;28;20247;-78
2021/12/26 05:42:44;;;;;;;25.40;10.20;;;-12.50;99.90;;;;;;5055427;28;20204;-78
2021/12/26 05:45:14;;;;;;;21.97;9.20;;;-12.50;99.90;;;;;;5053978;28;20216;-78
2021/12/26 05:47:41;;;;;;;25.63;8.07;;;-12.60;99.90;;;;;;5055175;28;20499;-77
2021/12/26 05:50:11;;;;;;;26.17;10.43;;;-12.70;99.90;;;;;;5055189;28;20345;-78
2021/12/26 05:52:38;;;;;;;26.53;13.07;;;-12.70;99.90;;;;;;5055087;28;20193;-78
2021/12/26 05:55:06;;;;;;;36.07;15.17;;;-12.70;99.90;;;;;;5055010;28;20495;-77
2021/12/26 05:57:33;;;;;;;36.93;15.13;;;-12.70;99.90;;;;;;5054584;28;20437;-78
2021/12/26 06:00:00;;;;;;;36.63;14.10;;;-12.70;99.90;;;;;;5054591;28;20491;-78
2021/12/26 06:02:28;;;;;;;30.90;13.97;;;-12.60;99.90;;;;;;5072696;28;20192;-78
2021/12/26 06:04:55;;;;;;;31.77;15.10;;;-12.60;99.90;;;;;;5074450;28;20549;-78
2021/12/26 06:07:23;;;;;;;32.10;13.67;;;-12.50;99.90;;;;;;5074739;28;20218;-77
2021/12/26 06:09:50;;;;;;;30.17;13.57;;;-12.40;99.90;;;;;;5064764;28;20484;-78
2021/12/26 06:12:20;;;;;;;41.70;17.03;;;-12.40;99.90;;;;;;5054405;28;20192;-78
2021/12/26 06:14:47;;;;;;;33.87;14.53;;;-12.30;99.90;;;;;;5054388;28;20239;-78
2021/12/26 06:17:14;;;;;;;40.37;17.33;;;-12.20;99.90;;;;;;5054978;28;20239;-78
2021/12/26 06:19:47;;;;;;;42.10;20.30;;;-12.10;99.90;;;;;;5054739;28;20231;-78
2021/12/26 06:22:20;;;;;;;54.07;21.50;;;-12.10;99.90;;;;;;5054109;28;20242;-78
2021/12/26 06:24:49;;;;;;;73.23;26.23;;;-12.10;99.90;;;;;;5054325;28;20223;-78
2021/12/26 06:27:15;;;;;;;53.03;22.40;;;-12.00;99.90;;;;;;5054353;28;20664;-78
2021/12/26 06:29:42;;;;;;;74.37;29.30;;;-12.00;99.90;;;;;;5054359;28;20284;-78
2021/12/26 06:32:10;;;;;;;97.70;38.07;;;-12.00;99.90;;;;;;5055143;28;20562;-78
2021/12/26 06:34:37;;;;;;;116.47;38.33;;;-11.90;99.90;;;;;;5053988;28;20259;-78
2021/12/26 06:37:06;;;;;;;70.03;26.30;;;-11.90;99.90;;;;;;5054217;28;20196;-78
2021/12/26 06:39:33;;;;;;;77.43;31.03;;;-11.90;99.90;;;;;;5054170;28;20196;-78
2021/12/26 06:42:00;;;;;;;84.20;32.33;;;-11.90;99.90;;;;;;5054121;28;20250;-78
2021/12/26 06:44:28;;;;;;;60.33;26.73;;;-11.80;99.90;;;;;;5053848;28;20193;-78
2021/12/26 06:46:55;;;;;;;57.17;26.83;;;-11.90;99.90;;;;;;5053951;28;20220;-78
2021/12/26 06:49:22;;;;;;;50.17;22.20;;;-11.90;99.90;;;;;;5054351;28;20193;-77
2021/12/26 06:51:51;;;;;;;57.07;25.63;;;-12.00;99.90;;;;;;5053633;28;20196;-78
2021/12/26 06:54:19;;;;;;;51.13;22.27;;;-12.10;99.90;;;;;;5053516;28;20552;-78
2021/12/26 06:56:46;;;;;;;44.90;19.47;;;-12.10;99.90;;;;;;5053824;28;20193;-78
2021/12/26 06:59:16;;;;;;;63.47;32.60;;;-12.10;99.90;;;;;;5053794;28;20197;-78
2021/12/26 07:01:44;;;;;;;45.43;19.93;;;-12.10;99.90;;;;;;5066830;28;20192;-79
2021/12/26 07:04:11;;;;;;;53.53;22.93;;;-12.10;99.90;;;;;;5073338;28;20494;-78
2021/12/26 07:06:38;;;;;;;57.77;23.37;;;-12.10;99.90;;;;;;5073210;28;20684;-79
2021/12/26 07:09:05;;;;;;;57.40;22.93;;;-12.10;99.90;;;;;;5073008;28;20482;-78
2021/12/26 07:11:33;;;;;;;60.77;23.90;;;-12.10;99.90;;;;;;5073188;28;20489;-78
2021/12/26 07:14:00;;;;;;;59.53;27.93;;;-12.10;99.90;;;;;;5073103;28;20273;-78
2021/12/26 07:16:27;;;;;;;57.17;26.57;;;-12.10;99.90;;;;;;5073490;28;20310;-78
2021/12/26 07:18:54;;;;;;;55.53;25.33;;;-12.00;99.90;;;;;;5073791;28;20194;-78
2021/12/26 07:21:21;;;;;;;57.90;22.63;;;-12.00;99.90;;;;;;5073212;28;20199;-78
2021/12/26 07:23:48;;;;;;;48.57;21.10;;;-12.00;99.90;;;;;;5073280;28;20196;-78
2021/12/26 07:26:15;;;;;;;47.03;21.93;;;-12.00;99.90;;;;;;5072826;28;20262;-78
2021/12/26 07:28:44;;;;;;;58.37;23.30;;;-12.00;99.90;;;;;;5072944;28;20725;-78
2021/12/26 07:31:11;;;;;;;68.20;30.43;;;-12.00;99.90;;;;;;5064935;28;20184;-78
2021/12/26 07:33:38;;;;;;;70.73;30.23;;;-12.00;99.90;;;;;;5053209;28;20238;-78
2021/12/26 07:36:05;;;;;;;68.70;28.73;;;-12.00;99.90;;;;;;5053092;28;20193;-78
2021/12/26 07:38:32;;;;;;;68.70;28.23;;;-11.90;99.90;;;;;;5053050;28;20193;-78
2021/12/26 07:41:01;;;;;;;89.00;30.40;;;-11.90;99.90;;;;;;5053257;28;20197;-78
2021/12/26 07:43:28;;;;;;;212.77;54.57;;;-11.80;99.90;;;;;;5053086;28;20199;-78
2021/12/26 07:45:56;;;;;;;247.97;58.20;;;-11.70;99.90;;;;;;5052773;28;20294;-78
2021/12/26 07:48:23;;;;;;;346.87;80.93;;;-11.60;99.90;;;;;;5052635;28;20189;-78
2021/12/26 07:50:50;;;;;;;484.77;127.67;;;-11.50;99.90;;;;;;5052533;28;20249;-78
2021/12/26 07:53:17;;;;;;;201.83;62.70;;;-11.40;99.90;;;;;;5052863;28;20604;-78
2021/12/26 07:55:45;;;;;;;204.13;65.93;;;-11.30;99.90;;;;;;5052236;28;20196;-78
2021/12/26 07:58:13;;;;;;;129.63;48.93;;;-11.20;99.90;;;;;;5052251;28;20192;-78
2021/12/26 08:00:43;;;;;;;153.27;57.17;;;-11.10;99.90;;;;;;5058100;28;20189;-78
2021/12/26 08:03:12;;;;;;;82.07;33.57;;;-11.10;99.90;;;;;;5073079;28;20192;-79
2021/12/26 08:05:39;;;;;;;60.40;25.67;;;-10.90;99.90;;;;;;5069406;28;20191;-79
2021/12/26 08:08:09;;;;;;;66.60;31.13;;;-10.90;99.90;;;;;;5062287;28;20211;-78
2021/12/26 08:10:37;;;;;;;65.23;27.47;;;-10.80;99.90;;;;;;5065738;28;20195;-78
2021/12/26 08:16:06;;;;;;;187.70;81.33;;;-10.70;99.90;;;;;;5071802;28;20234;-78
2021/12/26 08:18:35;;;;;;;130.50;48.23;;;-10.70;99.90;;;;;;5072290;28;20212;-78
2021/12/26 08:21:03;;;;;;;241.80;112.40;;;-10.60;99.90;;;;;;5069085;28;20192;-78
2021/12/26 08:23:30;;;;;;;151.50;58.57;;;-10.60;99.90;;;;;;5071855;28;20232;-78
2021/12/26 08:25:57;;;;;;;139.23;47.40;;;-10.60;99.90;;;;;;5072098;28;20269;-79
2021/12/26 08:28:25;;;;;;;136.00;52.83;;;-10.60;99.90;;;;;;5072373;28;20199;-78
2021/12/26 08:30:53;;;;;;;96.13;38.23;;;-10.50;99.90;;;;;;5067315;28;20592;-78
2021/12/26 08:33:20;;;;;;;90.13;36.53;;;-10.40;99.90;;;;;;5072481;28;20192;-78
2021/12/26 08:35:59;;;;;;;79.17;31.10;;;-10.20;99.90;;;;;;5072205;28;20191;-79
2021/12/26 08:38:31;;;;;;;71.30;30.33;;;-10.00;99.90;;;;;;5068795;28;20187;-79
2021/12/26 08:41:00;;;;;;;117.37;45.87;;;-9.90;99.90;;;;;;5065141;28;20192;-79
2021/12/26 08:43:30;;;;;;;149.23;58.83;;;-9.70;99.90;;;;;;5072265;28;20191;-79
2021/12/26 08:46:11;;;;;;;107.83;44.27;;;-9.60;99.90;;;;;;5071851;28;20672;-78
2021/12/26 08:48:42;;;;;;;84.70;33.33;;;-9.50;99.90;;;;;;5071804;28;20190;-79
2021/12/26 08:51:30;;;;;;;71.27;28.77;;;-9.30;99.90;;;;;;5072327;28;20198;-78
2021/12/26 08:54:00;;;;;;;76.57;32.17;;;-9.10;99.90;;;;;;5071821;28;20656;-79
2021/12/26 08:56:28;;;;;;;76.07;31.70;;;-9.00;99.90;;;;;;5072347;28;20204;-80
2021/12/26 08:58:56;;;;;;;59.63;26.67;;;-8.90;99.90;;;;;;5072074;28;20210;-80
2021/12/26 09:01:23;;;;;;;73.23;30.43;;;-8.80;99.90;;;;;;5064652;28;20247;-79
2021/12/26 09:03:50;;;;;;;91.40;43.47;;;-8.60;99.90;;;;;;5051809;28;20188;-80
2021/12/26 09:06:19;;;;;;;85.53;35.90;;;-8.40;99.90;;;;;;5051482;28;20213;-79
2021/12/26 09:08:46;;;;;;;79.97;34.47;;;-8.10;99.90;;;;;;5054717;28;20250;-80
2021/12/26 09:11:13;;;;;;;125.90;49.47;;;-7.60;99.90;;;;;;5056060;28;20260;-79
2021/12/26 09:13:40;;;;;;;189.47;76.77;;;-7.00;99.90;;;;;;5055845;28;20597;-80
2021/12/26 09:16:09;;;;;;;184.07;70.67;;;-6.20;99.90;;;;;;5055230;28;20770;-80
2021/12/26 09:18:37;;;;;;;108.27;49.73;;;-5.50;99.90;;;;;;5055833;28;20192;-80
2021/12/26 09:21:05;;;;;;;106.03;47.07;;;-4.80;99.90;;;;;;5056146;28;20279;-80
2021/12/26 09:23:33;;;;;;;130.70;53.93;;;-4.10;99.90;;;;;;5056142;28;20196;-80
2021/12/26 09:26:00;;;;;;;106.87;43.37;;;-3.50;99.90;;;;;;5055220;28;20723;-80
2021/12/26 09:28:33;;;;;;;94.37;39.83;;;-3.20;99.90;;;;;;5055546;28;20247;-79
2021/12/26 09:31:00;;;;;;;113.13;51.10;;;-3.00;99.90;;;;;;5056404;28;20193;-80
2021/12/26 09:33:27;;;;;;;116.40;56.70;;;-3.10;99.90;;;;;;5055530;28;20554;-80
2021/12/26 09:35:55;;;;;;;74.20;33.50;;;-3.20;99.90;;;;;;5055017;28;20699;-79
2021/12/26 09:38:28;;;;;;;82.07;33.77;;;-3.10;99.90;;;;;;5055441;28;20207;-80
2021/12/26 09:40:59;;;;;;;102.33;39.27;;;-2.80;99.90;;;;;;5055345;28;20234;-80
2021/12/26 09:43:32;;;;;;;131.77;45.33;;;-2.60;99.90;;;;;;5055362;28;20184;-79
2021/12/26 09:46:00;;;;;;;147.60;46.03;;;-2.30;99.90;;;;;;5055362;28;20181;-80
2021/12/26 09:48:27;;;;;;;134.75;44.80;;;-2.00;99.90;;;;;;5075153;28;20678;-79
2021/12/26 09:50:55;;;;;;;67.70;32.90;;;-1.90;99.90;;;;;;5075115;28;20776;-80
2021/12/26 09:53:23;;;;;;;87.37;38.73;;;-1.80;99.90;;;;;;5074746;28;20200;-79
2021/12/26 09:55:50;;;;;;;100.43;44.10;;;-1.70;99.90;;;;;;5075128;28;20204;-79
2021/12/26 09:58:19;;;;;;;67.67;33.33;;;-1.50;99.90;;;;;;5074832;28;20652;-80
2021/12/26 10:00:46;;;;;;;56.83;28.40;;;-1.40;99.90;;;;;;5073928;28;20675;-79
2021/12/26 10:03:20;;;;;;;70.67;34.43;;;-1.30;99.90;;;;;;5074856;28;20249;-80
2021/12/26 10:06:06;;;;;;;92.97;44.23;;;-1.50;99.90;;;;;;5074628;28;20222;-80
2021/12/26 10:08:36;;;;;;;104.10;50.73;;;-2.00;99.90;;;;;;5074323;28;20267;-79
2021/12/26 10:11:17;;;;;;;103.67;49.30;;;-2.50;99.90;;;;;;5074917;28;20192;-80
2021/12/26 10:13:56;;;;;;;91.97;44.40;;;-2.80;99.90;;;;;;5074281;28;20180;-79
2021/12/26 10:16:28;;;;;;;108.80;44.27;;;-3.10;99.90;;;;;;5073547;28;20228;-79
2021/12/26 10:18:56;;;;;;;119.50;46.67;;;-3.30;99.90;;;;;;5071800;28;20621;-79
2021/12/26 10:21:28;;;;;;;119.70;48.30;;;-3.50;99.90;;;;;;5073081;28;20241;-79
2021/12/26 10:23:58;;;;;;;111.63;47.27;;;-3.50;99.90;;;;;;5073079;28;20176;-79
2021/12/26 10:26:27;;;;;;;99.00;44.30;;;-3.60;99.90;;;;;;5072612;28;20652;-80
2021/12/26 10:29:15;;;;;;;112.37;47.03;;;-3.70;99.90;;;;;;5072909;28;20230;-79
2021/12/26 10:31:53;;;;;;;84.20;36.47;;;-3.90;99.90;;;;;;5071052;28;20180;-79
2021/12/26 10:34:27;;;;;;;68.50;30.77;;;-4.20;99.90;;;;;;5070206;28;20223;-80
2021/12/26 10:37:01;;;;;;;79.77;30.97;;;-4.50;99.90;;;;;;5072488;28;20262;-79
2021/12/26 10:39:31;;;;;;;188.73;77.90;;;-4.60;99.90;;;;;;5071674;28;20416;-79
2021/12/26 10:42:02;;;;;;;102.63;38.87;;;-4.60;99.90;;;;;;5072856;28;20599;-79
2021/12/26 10:44:41;;;;;;;102.03;37.93;;;-4.70;99.90;;;;;;5072592;28;20633;-79
2021/12/26 10:47:18;;;;;;;83.73;30.93;;;-4.70;99.90;;;;;;5071644;28;20223;-79
2021/12/26 10:49:49;;;;;;;101.57;37.73;;;-4.80;99.90;;;;;;5070854;28;20180;-79
2021/12/26 10:52:21;;;;;;;230.03;73.77;;;-4.80;99.90;;;;;;5072626;28;20586;-79
2021/12/26 10:54:55;;;;;;;157.93;52.30;;;-4.80;99.90;;;;;;5072659;28;20234;-78
2021/12/26 10:57:31;;;;;;;73.23;33.83;;;-4.70;99.90;;;;;;5062913;28;20191;-79
2021/12/26 11:00:15;;;;;;;41.57;19.00;;;-4.60;99.90;;;;;;5065667;28;20216;-78
2021/12/26 11:03:01;;;;;;;107.70;40.23;;;-4.60;99.90;;;;;;5070021;28;20176;-78
2021/12/26 11:05:34;;;;;;;97.90;35.57;;;-4.50;99.90;;;;;;5061796;28;20263;-79
2021/12/26 11:08:05;;;;;;;100.37;35.83;;;-4.40;99.90;;;;;;5065872;28;20203;-79
2021/12/26 11:10:37;;;;;;;95.67;34.93;;;-4.40;99.90;;;;;;5072475;28;20186;-79
2021/12/26 11:13:09;;;;;;;82.63;33.87;;;-4.30;99.90;;;;;;5071879;28;20274;-79
2021/12/26 11:15:43;;;;;;;70.23;26.47;;;-4.20;99.90;;;;;;5073136;28;20191;-79
2021/12/26 11:18:15;;;;;;;58.80;24.73;;;-4.10;99.90;;;;;;5073441;28;20653;-79
2021/12/26 11:20:44;;;;;;;59.50;24.53;;;-4.00;99.90;;;;;;5073206;28;20188;-79
2021/12/26 11:23:16;;;;;;;69.77;28.83;;;-4.00;99.90;;;;;;5073359;28;20580;-79
2021/12/26 11:25:55;;;;;;;92.60;39.73;;;-3.90;99.90;;;;;;5073096;28;20183;-79
2021/12/26 11:28:28;;;;;;;60.93;33.73;;;-3.90;99.90;;;;;;5072968;28;20208;-79
2021/12/26 11:30:58;;;;;;;46.27;26.33;;;-3.80;99.90;;;;;;5060164;28;20189;-79
2021/12/26 11:33:27;;;;;;;74.13;47.97;;;-3.70;99.90;;;;;;5053049;28;20188;-79
2021/12/26 11:35:56;;;;;;;60.57;36.83;;;-3.70;99.90;;;;;;5052770;28;20195;-79
2021/12/26 11:38:24;;;;;;;64.97;38.70;;;-3.60;99.90;;;;;;5052748;28;20607;-79
2021/12/26 11:40:55;;;;;;;84.07;45.53;;;-3.60;99.90;;;;;;5052892;28;20646;-79
2021/12/26 11:44:00;;;;;;;70.10;40.77;;;-3.60;99.90;;;;;;5052813;28;20576;-79
2021/12/26 11:46:42;;;;;;;82.43;40.87;;;-3.50;99.90;;;;;;5052588;28;20180;-80
2021/12/26 11:49:38;;;;;;;69.83;38.33;;;-3.60;99.90;;;;;;5052844;28;20189;-80
2021/12/26 11:52:30;;;;;;;69.90;37.00;;;-3.50;99.90;;;;;;5051955;28;20189;-80
2021/12/26 11:55:27;;;;;;;60.63;37.37;;;-3.50;99.90;;;;;;5051040;28;20626;-79
2021/12/26 11:58:19;;;;;;;56.07;33.80;;;-3.50;99.90;;;;;;5051066;28;20181;-79
2021/12/26 12:00:54;;;;;;;60.80;34.73;;;-3.50;99.90;;;;;;5051684;28;20188;-79
2021/12/26 12:03:37;;;;;;;53.00;33.33;;;-3.50;99.90;;;;;;5052320;28;20191;-79
2021/12/26 12:06:10;;;;;;;52.20;34.47;;;-3.50;99.90;;;;;;5052054;28;20243;-80
2021/12/26 12:08:43;;;;;;;47.87;27.77;;;-3.60;99.90;;;;;;5052269;28;20204;-80
2021/12/26 12:11:13;;;;;;;49.20;23.33;;;-3.50;99.90;;;;;;5052641;28;20185;-79
2021/12/26 12:13:48;;;;;;;44.87;22.73;;;-3.50;99.90;;;;;;5052445;28;20224;-79
2021/12/26 12:16:35;;;;;;;57.77;29.53;;;-3.50;99.90;;;;;;5052394;28;20684;-80
2021/12/26 12:19:11;;;;;;;82.30;35.13;;;-3.50;99.90;;;;;;5052213;28;20181;-80
2021/12/26 12:21:43;;;;;;;42.90;20.27;;;-3.50;99.90;;;;;;5052165;28;20193;-79
2021/12/26 12:24:12;;;;;;;24.33;14.53;;;-3.50;99.90;;;;;;5052279;28;20672;-79
2021/12/26 12:26:52;;;;;;;31.77;16.60;;;-3.60;99.90;;;;;;5052418;28;20196;-79
2021/12/26 12:29:46;;;;;;;31.80;16.83;;;-3.60;99.90;;;;;;5053236;28;20249;-79
2021/12/26 12:32:17;;;;;;;28.50;14.90;;;-3.60;99.90;;;;;;5052656;28;20191;-79
2021/12/26 12:34:52;;;;;;;65.90;27.60;;;-3.60;99.90;;;;;;5072161;28;20184;-79
2021/12/26 12:37:33;;;;;;;81.37;34.13;;;-3.50;99.90;;;;;;5072042;28;20189;-80